Time;durP1;ratioP1;P1;durP2;ratioP2;P2;SDS_P1;SDS_P2;PMS_P1;PMS_P2;Temp;Humidity;BMP_temperature;BMP_pressure;BME280_temperature;BME280_humidity;BME280_pressure;Samples;Min_cycle;Max_cycle;Signal;HPM_P1;HPM_P2
2022/05/11 00:01:00;;;;;;;;;;;16.60;91.10;;;;;;5068254;28;19966;-63
2022/05/11 00:03:26;;;;;;;;;;;16.60;91.20;;;;;;5066725;28;19912;-63
2022/05/11 00:05:52;;;;;;;;;;;16.60;91.20;;;;;;5070112;28;19912;-64
2022/05/11 00:08:17;;;;;;;;;;;16.60;91.20;;;;;;5070216;28;20436;-63
2022/05/11 00:10:43;;;;;;;;;;;16.60;91.20;;;;;;5067979;28;19998;-63
2022/05/11 00:13:09;;;;;;;;;;;16.70;91.30;;;;;;5067357;28;19957;-62
2022/05/11 00:15:34;;;;;;;;;;;16.70;91.40;;;;;;5068373;28;19908;-61
2022/05/11 00:18:01;;;;;;;;;;;16.60;91.50;;;;;;5070470;28;19920;-62
2022/05/11 00:20:27;;;;;;;13.52;4.07;;;16.60;91.60;;;;;;5067558;28;20019;-62
2022/05/11 00:22:57;;;;;;;14.85;4.45;;;16.50;91.70;;;;;;5064647;28;20487;-61
2022/05/11 00:25:25;;;;;;;16.00;4.50;;;16.60;91.80;;;;;;5066210;28;20416;-62
2022/05/11 00:27:55;;;;;;;13.18;4.05;;;16.60;91.90;;;;;;5069365;28;20895;-62
2022/05/11 00:30:21;;;;;;;15.27;4.80;;;16.50;91.90;;;;;;5067614;28;20804;-62
2022/05/11 00:32:47;;;;;;;14.70;4.00;;;16.50;92.00;;;;;;5065996;28;20444;-63
2022/05/11 00:35:13;;;;;;;15.15;4.43;;;16.50;92.00;;;;;;5066729;28;20464;-62
2022/05/11 00:37:39;;;;;;;15.03;4.13;;;16.60;92.00;;;;;;5067016;28;20498;-62
2022/05/11 00:40:05;;;;;;;13.27;3.87;;;16.60;91.80;;;;;;5066508;28;20408;-62
2022/05/11 00:42:31;;;;;;;16.45;4.30;;;16.60;91.80;;;;;;5065680;28;20445;-62
2022/05/11 00:44:57;;;;;;;;;;;16.60;91.80;;;;;;5067430;28;20535;-62
2022/05/11 00:47:32;;;;;;;;;;;16.60;91.80;;;;;;5070657;28;19987;-63
2022/05/11 00:50:00;;;;;;;;;;;16.60;91.80;;;;;;5065014;28;19919;-64
2022/05/11 00:52:43;;;;;;;;;;;16.50;91.70;;;;;;5069740;28;19917;-65
2022/05/11 00:55:12;;;;;;;;;;;16.60;91.70;;;;;;5065291;28;19915;-63
2022/05/11 00:57:47;;;;;;;;;;;16.50;91.60;;;;;;5068405;28;20277;-63
2022/05/11 01:00:13;;;;;;;;;;;16.50;91.60;;;;;;5067696;28;20431;-64
2022/05/11 01:02:42;;;;;;;;;;;16.50;91.60;;;;;;5068834;28;19967;-63
2022/05/11 01:05:09;;;;;;;;;;;16.50;91.50;;;;;;5068162;28;19916;-63
2022/05/11 01:07:35;;;;;;;;;;;16.50;91.50;;;;;;5067024;28;20045;-63
2022/05/11 01:10:01;;;;;;;;;;;16.50;91.60;;;;;;5064462;28;19912;-62
2022/05/11 01:12:29;;;;;;;;;;;16.50;91.50;;;;;;5070067;28;21630;-62
2022/05/11 01:14:57;;;;;;;;;;;16.50;91.50;;;;;;5067708;28;19912;-63
2022/05/11 01:17:24;;;;;;;;;;;16.50;91.50;;;;;;5065380;28;19916;-62
2022/05/11 01:19:50;;;;;;;;;;;16.50;91.50;;;;;;5067678;28;19920;-64
2022/05/11 01:22:34;;;;;;;14.57;4.32;;;16.50;91.50;;;;;;5065832;28;20903;-62
2022/05/11 01:25:01;;;;;;;16.17;4.47;;;16.40;91.50;;;;;;5066266;28;20929;-61
2022/05/11 01:27:39;;;;;;;14.73;4.30;;;16.40;91.60;;;;;;5068037;28;20460;-61
2022/05/11 01:30:25;;;;;;;16.40;4.03;;;16.40;91.60;;;;;;5066442;28;20395;-61
2022/05/11 01:32:55;;;;;;;14.32;4.40;;;16.40;91.60;;;;;;5065139;28;20764;-63
2022/05/11 01:35:36;;;;;;;;;;;16.30;91.60;;;;;;5066860;28;20422;-63
2022/05/11 01:38:05;;;;;;;;;;;16.30;91.60;;;;;;5067088;28;20331;-61
2022/05/11 01:40:30;;;;;;;15.02;4.55;;;16.30;91.70;;;;;;5066529;28;20841;-63
2022/05/11 01:42:56;;;;;;;16.97;4.37;;;16.30;91.80;;;;;;5064984;28;20495;-64
2022/05/11 01:45:22;;;;;;;18.55;4.45;;;16.30;92.00;;;;;;5062221;28;20406;-63
2022/05/11 01:47:47;;;;;;;14.40;4.32;;;16.20;92.10;;;;;;5065409;28;20814;-64
2022/05/11 01:50:13;;;;;;;15.23;4.10;;;16.20;92.20;;;;;;5065902;28;21075;-63
2022/05/11 01:52:39;;;;;;;17.73;4.40;;;16.20;92.40;;;;;;5064525;28;20415;-63
2022/05/11 01:55:05;;;;;;;14.05;4.35;;;16.10;92.50;;;;;;5065873;28;20412;-63
2022/05/11 01:57:30;;;;;;;13.77;4.20;;;16.10;92.60;;;;;;5048671;28;20418;-64
2022/05/11 01:59:56;;;;;;;16.63;4.47;;;16.20;92.70;;;;;;5065781;28;20415;-63
2022/05/11 02:02:22;;;;;;;19.60;4.40;;;16.10;92.70;;;;;;5063470;28;20411;-65
2022/05/11 02:07:50;;;;;;;15.43;4.57;;;16.20;92.80;;;;;;5066801;28;20391;-63
2022/05/11 02:10:17;;;;;;;17.60;4.80;;;16.20;92.90;;;;;;5064691;28;20437;-63
2022/05/11 02:12:43;;;;;;;21.83;4.70;;;16.20;93.30;;;;;;5067205;28;20562;-65
2022/05/11 02:15:09;;;;;;;17.88;4.70;;;16.20;93.00;;;;;;5065377;28;20986;-65
2022/05/11 02:17:35;;;;;;;19.00;4.85;;;16.20;93.10;;;;;;5071720;28;20484;-64
2022/05/11 02:20:01;;;;;;;18.20;4.87;;;16.20;93.10;;;;;;5067884;28;20429;-65
2022/05/11 02:22:27;;;;;;;21.80;4.93;;;16.10;93.20;;;;;;5071254;28;20418;-64
2022/05/11 02:24:52;;;;;;;17.93;4.17;;;16.20;93.20;;;;;;5069353;28;20415;-65
2022/05/11 02:27:18;;;;;;;18.73;4.80;;;16.20;93.30;;;;;;5072012;28;20880;-65
2022/05/11 02:29:44;;;;;;;19.92;4.70;;;16.20;93.30;;;;;;5066922;28;20481;-63
2022/05/11 02:32:09;;;;;;;19.53;4.70;;;16.10;93.30;;;;;;5068987;28;20417;-63
2022/05/11 02:37:19;;;;;;;19.30;4.55;;;16.10;93.30;;;;;;5069530;28;20411;-64
2022/05/11 02:39:45;;;;;;;18.75;4.80;;;16.10;93.40;;;;;;5068426;28;20509;-64
2022/05/11 02:42:12;;;;;;;18.52;4.50;;;16.20;93.50;;;;;;5070634;28;20833;-63
2022/05/11 02:44:37;;;;;;;20.00;4.53;;;16.20;93.50;;;;;;5068974;28;20427;-63
2022/05/11 02:47:03;;;;;;;18.83;4.07;;;16.20;93.50;;;;;;5071650;28;20506;-64
2022/05/11 02:49:29;;;;;;;19.52;4.63;;;16.10;93.30;;;;;;5066579;28;20443;-65
2022/05/11 02:51:55;;;;;;;18.87;4.70;;;16.10;93.40;;;;;;5068291;28;20829;-63
2022/05/11 02:54:20;;;;;;;19.75;4.10;;;16.10;93.40;;;;;;5065932;28;20416;-64
2022/05/11 02:56:46;;;;;;;17.05;4.28;;;16.10;93.30;;;;;;5066164;28;20420;-62
2022/05/11 02:59:12;;;;;;;18.77;4.40;;;16.20;93.30;;;;;;5070660;28;20407;-65
2022/05/11 03:01:37;;;;;;;15.40;4.40;;;16.10;93.20;;;;;;5048350;28;20415;-63
2022/05/11 03:04:03;;;;;;;15.55;3.90;;;16.10;93.20;;;;;;5069525;28;20841;-64
2022/05/11 03:06:29;;;;;;;21.87;4.80;;;16.20;93.10;;;;;;5070882;28;20407;-64
2022/05/11 03:08:54;;;;;;;18.02;4.20;;;16.20;93.10;;;;;;5067462;28;20753;-64
2022/05/11 03:11:20;;;;;;;17.75;4.10;;;16.20;93.00;;;;;;5070846;28;20827;-65
2022/05/11 03:13:46;;;;;;;17.13;4.20;;;16.20;93.00;;;;;;5065733;28;20399;-64
2022/05/11 03:16:11;;;;;;;13.25;3.60;;;16.10;93.10;;;;;;5068455;28;20412;-64
2022/05/11 03:18:37;;;;;;;18.98;3.88;;;16.10;92.90;;;;;;5067926;28;20909;-65
2022/05/11 03:21:03;;;;;;;15.83;3.97;;;16.10;92.80;;;;;;5069813;28;21546;-62
2022/05/11 03:23:28;;;;;;;14.47;3.73;;;16.10;92.80;;;;;;5067548;28;20427;-63
2022/05/11 03:25:54;;;;;;;16.42;3.80;;;16.10;92.60;;;;;;5068725;28;20411;-64
2022/05/11 03:28:20;;;;;;;14.98;3.75;;;16.10;92.60;;;;;;5066930;28;20529;-63
2022/05/11 03:30:46;;;;;;;13.85;3.20;;;16.10;92.50;;;;;;5066594;28;20947;-61
2022/05/11 03:35:56;;;;;;;18.45;3.53;;;16.10;92.10;;;;;;5068497;28;20426;-62
2022/05/11 03:38:22;;;;;;;15.13;3.60;;;16.10;91.90;;;;;;5066723;28;20446;-63
2022/05/11 03:40:48;;;;;;;15.57;3.30;;;16.10;91.80;;;;;;5069067;28;20544;-63
2022/05/11 03:43:13;;;;;;;;;;;16.10;91.70;;;;;;5068683;28;20515;-64
2022/05/11 03:45:39;;;;;;;15.23;3.53;;;16.10;91.60;;;;;;5068594;28;20025;-66
2022/05/11 03:48:05;;;;;;;16.10;4.13;;;16.10;91.50;;;;;;5065390;28;20411;-64
2022/05/11 03:50:32;;;;;;;13.85;3.17;;;16.00;91.50;;;;;;5065092;28;21836;-64
2022/05/11 03:52:58;;;;;;;15.40;3.40;;;16.00;91.50;;;;;;5066126;28;20772;-63
2022/05/11 03:55:26;;;;;;;12.67;3.50;;;16.10;91.50;;;;;;5068899;28;20407;-63
2022/05/11 03:57:52;;;;;;;17.08;3.88;;;16.10;91.40;;;;;;5067857;28;20412;-63
2022/05/11 04:00:20;;;;;;;;;;;16.10;91.30;;;;;;5069982;28;20485;-62
2022/05/11 04:02:45;;;;;;;;;;;16.00;91.30;;;;;;5067893;28;19915;-63
2022/05/11 04:05:13;;;;;;;;;;;16.10;91.10;;;;;;5066879;28;20496;-65
2022/05/11 04:07:39;;;;;;;;;;;16.10;91.20;;;;;;5065208;28;20440;-64
2022/05/11 04:10:05;;;;;;;;;;;16.10;91.10;;;;;;5067501;28;19908;-63
2022/05/11 04:12:31;;;;;;;;;;;16.00;91.00;;;;;;5065759;28;19909;-64
2022/05/11 04:14:57;;;;;;;;;;;16.00;91.00;;;;;;5071009;28;20007;-63
2022/05/11 04:17:22;;;;;;;;;;;16.00;91.00;;;;;;5069482;28;19913;-65
2022/05/11 04:19:48;;;;;;;17.55;3.40;;;16.00;91.00;;;;;;5070328;28;20625;-64
2022/05/11 04:22:14;;;;;;;;;;;16.00;91.00;;;;;;5066086;28;20420;-64
2022/05/11 04:24:39;;;;;;;;;;;16.00;91.00;;;;;;5070611;28;19913;-63
2022/05/11 04:27:05;;;;;;;;;;;16.00;90.90;;;;;;5067728;28;19908;-64
2022/05/11 04:29:30;;;;;;;;;;;16.00;91.00;;;;;;5069320;28;19923;-64
2022/05/11 04:31:56;;;;;;;;;;;16.00;91.10;;;;;;5063928;28;20061;-64
2022/05/11 04:34:23;;;;;;;;;;;16.00;91.10;;;;;;5062099;28;20015;-65
2022/05/11 04:36:48;;;;;;;;;;;15.90;91.10;;;;;;5065809;28;19916;-68
2022/05/11 04:39:14;;;;;;;;;;;15.90;91.10;;;;;;5065463;28;19908;-64
2022/05/11 04:41:40;;;;;;;;;;;15.90;91.10;;;;;;5064884;28;19952;-64
2022/05/11 04:44:05;;;;;;;;;;;16.00;91.10;;;;;;5063793;28;20243;-63
2022/05/11 04:46:33;;;;;;;;;;;15.90;91.00;;;;;;5069435;28;20289;-64
2022/05/11 04:49:19;;;;;;;;;;;15.90;90.90;;;;;;5064934;28;19927;-62
2022/05/11 04:52:20;;;;;;;;;;;15.90;91.00;;;;;;5068385;28;19957;-62
2022/05/11 04:54:49;;;;;;;;;;;15.90;90.90;;;;;;5083895;28;20397;-64
2022/05/11 04:57:18;;;;;;;;;;;15.90;91.00;;;;;;5069264;28;19909;-63
2022/05/11 04:59:44;;;;;;;;;;;15.90;90.90;;;;;;5066531;28;19909;-63
2022/05/11 05:02:14;;;;;;;;;;;16.00;90.90;;;;;;5068380;28;20384;-63
2022/05/11 05:04:39;;;;;;;;;;;16.00;90.80;;;;;;5068311;28;19927;-62
2022/05/11 05:07:05;;;;;;;;;;;16.00;90.90;;;;;;5067069;28;19908;-63
2022/05/11 05:09:30;;;;;;;;;;;16.00;90.90;;;;;;5067060;28;19923;-64
2022/05/11 05:11:56;;;;;;;;;;;16.00;90.80;;;;;;5069003;28;19957;-64
2022/05/11 05:14:22;;;;;;;;;;;16.00;90.80;;;;;;5066680;28;19920;-63
2022/05/11 05:16:48;;;;;;;;;;;16.00;90.80;;;;;;5069505;28;19915;-63
2022/05/11 05:19:14;;;;;;;;;;;16.00;90.90;;;;;;5066785;28;19920;-63
2022/05/11 05:21:40;;;;;;;;;;;16.00;91.10;;;;;;5063761;28;19912;-63
2022/05/11 05:24:06;;;;;;;;;;;16.00;91.20;;;;;;5063627;28;19970;-63
2022/05/11 05:26:32;;;;;;;;;;;16.00;91.10;;;;;;5067952;28;19923;-62
2022/05/11 05:31:42;;;;;;;;;;;16.00;91.60;;;;;;5068801;28;20470;-64
2022/05/11 05:34:07;;;;;;;;;;;16.10;91.20;;;;;;5064592;28;19924;-63
2022/05/11 05:36:36;;;;;;;;;;;16.10;91.20;;;;;;5067080;28;19913;-63
2022/05/11 05:39:03;;;;;;;18.70;3.40;;;16.10;91.20;;;;;;5067002;28;20398;-64
2022/05/11 05:41:29;;;;;;;;;;;16.10;91.30;;;;;;5067508;28;20419;-64
2022/05/11 05:43:55;;;;;;;;;;;16.10;91.30;;;;;;5065150;28;19913;-64
2022/05/11 05:46:21;;;;;;;;;;;16.20;91.40;;;;;;5064454;28;19923;-64
2022/05/11 05:48:46;;;;;;;;;;;16.20;91.40;;;;;;5063391;28;19912;-64
2022/05/11 05:51:15;;;;;;;19.55;3.15;;;16.20;91.40;;;;;;5065091;28;20063;-63
2022/05/11 05:53:41;;;;;;;23.75;3.45;;;16.20;91.50;;;;;;5065547;28;20427;-63
2022/05/11 05:56:09;;;;;;;21.23;3.30;;;16.20;91.40;;;;;;5066599;28;20486;-64
2022/05/11 05:58:35;;;;;;;;;;;16.20;91.20;;;;;;5060893;28;20415;-64
2022/05/11 06:01:00;;;;;;;;;;;16.20;91.40;;;;;;5066968;28;19911;-62
2022/05/11 06:03:27;;;;;;;;;;;16.20;91.50;;;;;;5066580;28;19912;-63
2022/05/11 06:05:53;;;;;;;;;;;16.20;91.60;;;;;;5068237;28;19908;-62
2022/05/11 06:08:19;;;;;;;;;;;16.30;91.60;;;;;;5065463;28;19953;-63
2022/05/11 06:10:46;;;;;;;;;;;16.30;91.50;;;;;;5064366;28;19991;-63
2022/05/11 06:13:16;;;;;;;;;;;16.40;91.20;;;;;;5064963;28;19919;-65
2022/05/11 06:15:42;;;;;;;;;;;16.40;91.10;;;;;;5066587;28;19908;-63
2022/05/11 06:18:08;;;;;;;;;;;16.30;91.20;;;;;;5064161;28;20353;-64
2022/05/11 06:20:34;;;;;;;;;;;16.30;91.30;;;;;;5063062;28;19912;-64
2022/05/11 06:23:00;;;;;;;;;;;16.30;91.40;;;;;;5065207;28;19915;-64
2022/05/11 06:25:26;;;;;;;;;;;16.40;91.40;;;;;;5066465;28;19909;-64
2022/05/11 06:27:51;;;;;;;;;;;16.40;91.40;;;;;;5063092;28;19962;-64
2022/05/11 06:30:17;;;;;;;;;;;16.40;91.40;;;;;;5064144;28;19917;-63
2022/05/11 06:32:43;;;;;;;;;;;16.40;91.40;;;;;;5065532;28;19913;-63
2022/05/11 06:35:09;;;;;;;;;;;16.30;91.50;;;;;;5063813;28;20340;-63
2022/05/11 06:37:37;;;;;;;;;;;16.40;91.60;;;;;;5068933;28;20353;-63
2022/05/11 06:40:03;;;;;;;;;;;16.40;91.60;;;;;;5059832;28;19975;-63
2022/05/11 06:42:30;;;;;;;;;;;16.50;91.50;;;;;;5068730;28;20377;-63
2022/05/11 06:44:56;;;;;;;;;;;16.60;91.50;;;;;;5066317;28;20008;-64
2022/05/11 06:47:22;;;;;;;;;;;16.60;91.10;;;;;;5065993;28;20215;-64
2022/05/11 06:49:47;;;;;;;;;;;16.60;91.10;;;;;;5064855;28;19924;-62
2022/05/11 06:52:14;;;;;;;;;;;16.60;91.10;;;;;;5062508;28;19916;-63
2022/05/11 07:00:08;;;;;;;;;;;16.50;91.80;;;;;;5066331;28;19923;-64
2022/05/11 07:02:37;;;;;;;;;;;16.60;91.70;;;;;;5064534;28;20312;-64
2022/05/11 07:05:03;;;;;;;;;;;16.70;91.40;;;;;;5050390;28;19916;-63
2022/05/11 07:07:29;;;;;;;;;;;16.80;91.00;;;;;;5070963;28;20003;-64
2022/05/11 07:09:54;;;;;;;;;;;16.80;90.80;;;;;;5069368;28;20002;-63
2022/05/11 07:12:21;;;;;;;;;;;16.90;90.70;;;;;;5071142;28;20503;-64
2022/05/11 07:14:48;;;;;;;;;;;17.00;90.40;;;;;;5066311;28;19971;-64
2022/05/11 07:17:24;;;;;;;;;;;17.10;90.30;;;;;;5071035;28;19908;-66
2022/05/11 07:19:49;;;;;;;;;;;17.10;90.10;;;;;;5066948;28;19920;-64
2022/05/11 07:22:15;;;;;;;;;;;17.10;90.00;;;;;;5066541;28;19909;-64
2022/05/11 07:24:42;;;;;;;;;;;17.20;90.00;;;;;;5067855;28;19920;-63
2022/05/11 07:27:08;;;;;;;;;;;17.20;89.90;;;;;;5063666;28;19912;-64
2022/05/11 07:29:33;;;;;;;;;;;17.30;89.50;;;;;;5066047;28;19935;-64
2022/05/11 07:31:59;;;;;;;;;;;17.40;89.40;;;;;;5069855;28;20369;-64
2022/05/11 07:34:24;;;;;;;;;;;17.50;89.10;;;;;;5063964;28;20364;-63
2022/05/11 07:36:54;;;;;;;;;;;17.50;88.70;;;;;;5066124;28;19917;-65
2022/05/11 07:39:20;;;;;;;;;;;17.50;88.50;;;;;;5067354;28;19962;-65
2022/05/11 07:41:46;;;;;;;;;;;17.50;88.50;;;;;;5069044;28;19916;-64
2022/05/11 07:44:11;;;;;;;;;;;17.50;89.00;;;;;;5064598;28;20373;-64
2022/05/11 07:46:37;;;;;;;;;;;17.50;88.90;;;;;;5064977;28;19954;-65
2022/05/11 07:49:03;;;;;;;;;;;17.40;89.50;;;;;;5064554;28;19919;-64
2022/05/11 07:51:29;;;;;;;;;;;17.30;90.00;;;;;;5070319;28;20015;-64
2022/05/11 07:53:54;;;;;;;;;;;17.20;90.20;;;;;;5067054;28;20008;-65
2022/05/11 08:01:48;;;;;;;;;;;17.20;90.50;;;;;;5071102;28;20380;-65
2022/05/11 08:04:13;;;;;;;;;;;17.20;90.50;;;;;;5067099;28;19963;-65
2022/05/11 08:06:39;;;;;;;;;;;17.30;90.50;;;;;;5070453;28;19939;-65
2022/05/11 08:09:05;;;;;;;;;;;17.40;90.30;;;;;;5063852;28;19919;-65
2022/05/11 08:11:30;;;;;;;;;;;17.50;90.20;;;;;;5070345;28;19943;-65
2022/05/11 08:13:56;;;;;;;;;;;17.60;90.10;;;;;;5067084;28;19912;-64
2022/05/11 08:16:22;;;;;;;;;;;17.60;90.10;;;;;;5069204;28;20519;-64
2022/05/11 08:18:47;;;;;;;;;;;17.80;89.90;;;;;;5066754;28;19915;-65
2022/05/11 08:21:13;;;;;;;;;;;18.20;88.90;;;;;;5068148;28;19916;-65
2022/05/11 08:23:39;;;;;;;;;;;18.60;86.30;;;;;;5069200;28;19942;-65
2022/05/11 08:26:05;;;;;;;;;;;18.80;84.70;;;;;;5069878;28;19912;-64
2022/05/11 08:28:30;;;;;;;;;;;19.00;83.70;;;;;;5067153;28;19935;-64
2022/05/11 08:33:48;;;;;;;;;;;19.50;81.30;;;;;;5075009;28;19913;-64
2022/05/11 08:36:16;;;;;;;;;;;19.60;80.40;;;;;;5069300;28;19919;-64
2022/05/11 08:38:44;;;;;;;;;;;19.60;80.40;;;;;;5065086;28;20482;-64
2022/05/11 08:41:28;;;;;;;;;;;19.50;80.60;;;;;;5067359;28;19912;-64
2022/05/11 08:43:55;;;;;;;;;;;19.60;80.70;;;;;;5068031;28;20021;-64
2022/05/11 08:46:39;;;;;;;;;;;19.80;80.50;;;;;;5067843;28;19909;-64
2022/05/11 08:49:10;;;;;;;;;;;19.80;80.50;;;;;;5071273;28;19974;-64
2022/05/11 08:51:39;;;;;;;27.60;5.07;;;20.00;79.70;;;;;;5067618;28;20421;-64
2022/05/11 08:54:04;;;;;;;;;;;20.40;78.20;;;;;;5066700;28;20407;-64
2022/05/11 08:56:30;;;;;;;;;;;20.80;76.00;;;;;;5067353;28;20392;-64
2022/05/11 08:58:57;;;;;;;;;;;20.70;74.40;;;;;;5066798;28;19909;-65
2022/05/11 09:01:29;;;;;;;;;;;20.50;75.90;;;;;;5066373;28;19909;-63
2022/05/11 09:03:56;;;;;;;;;;;20.60;75.50;;;;;;5067438;28;19942;-63
2022/05/11 09:06:27;;;;;;;;;;;20.50;75.10;;;;;;5064917;28;19951;-63
2022/05/11 09:08:53;;;;;;;;;;;20.20;76.20;;;;;;5068660;28;20280;-64
2022/05/11 09:11:27;;;;;;;;;;;20.00;77.20;;;;;;5063706;28;19912;-64
2022/05/11 09:13:55;;;;;;;;;;;19.90;77.90;;;;;;5067463;28;20435;-64
2022/05/11 09:16:22;;;;;;;;;;;19.70;78.80;;;;;;5066296;28;19911;-65
2022/05/11 09:18:48;;;;;;;;;;;19.90;79.20;;;;;;5068436;28;19908;-64
2022/05/11 09:21:34;;;;;;;;;;;20.40;76.90;;;;;;5066038;28;20021;-64
2022/05/11 09:24:06;;;;;;;;;;;20.60;75.70;;;;;;5061485;28;19916;-63
2022/05/11 09:26:33;;;;;;;;;;;20.70;74.60;;;;;;5059588;28;19916;-63
2022/05/11 09:29:16;;;;;;;;;;;20.60;74.50;;;;;;5059102;28;19909;-63
2022/05/11 09:31:43;;;;;;;;;;;20.60;74.80;;;;;;5064897;28;19916;-63
2022/05/11 09:34:12;;;;;;;;;;;20.70;75.10;;;;;;5062607;28;19921;-64
2022/05/11 09:36:40;;;;;;;;;;;20.70;74.50;;;;;;5056872;28;19924;-64
2022/05/11 09:39:13;;;;;;;;;;;20.60;75.00;;;;;;5063256;28;19912;-63
2022/05/11 09:41:44;;;;;;;;;;;20.70;74.60;;;;;;5061222;28;19954;-64
2022/05/11 09:44:21;;;;;;;;;;;20.80;73.90;;;;;;5061496;28;19923;-63
2022/05/11 09:46:47;;;;;;;;;;;20.60;74.10;;;;;;5061131;28;19908;-64
2022/05/11 09:49:19;;;;;;;;;;;20.30;75.30;;;;;;5066904;28;19999;-64
2022/05/11 09:51:50;;;;;;;;;;;19.90;76.70;;;;;;5061874;28;20426;-62
2022/05/11 09:54:28;;;;;;;;;;;19.60;77.80;;;;;;5062564;28;19912;-63
2022/05/11 09:56:54;;;;;;;;;;;19.50;79.50;;;;;;5060987;28;19916;-64
2022/05/11 09:59:25;;;;;;;;;;;19.60;79.50;;;;;;5064490;28;19926;-64
2022/05/11 10:01:54;;;;;;;;;;;19.70;78.30;;;;;;5066514;28;19995;-64
2022/05/11 10:04:28;;;;;;;;;;;19.80;78.50;;;;;;5066438;28;19921;-64
2022/05/11 10:06:55;;;;;;;;;;;19.80;78.30;;;;;;5064175;28;19908;-65
2022/05/11 10:09:27;;;;;;;;;;;19.90;77.70;;;;;;5063241;28;19916;-64
2022/05/11 10:11:53;;;;;;;;;;;20.10;77.10;;;;;;5062775;28;19912;-64
2022/05/11 10:22:37;;;;;;;;;;;23.30;63.30;;;;;;5065826;28;19912;-63
2022/05/11 10:25:09;;;;;;;;;;;24.00;60.00;;;;;;5061392;28;20671;-63
2022/05/11 10:27:48;;;;;;;;;;;24.30;58.60;;;;;;5068155;28;20361;-63
2022/05/11 10:30:13;;;;;;;;;;;24.70;56.70;;;;;;5065629;28;19952;-64
2022/05/11 10:32:48;;;;;;;;;;;25.00;56.10;;;;;;5065550;28;19958;-63
2022/05/11 10:35:32;;;;;;;;;;;25.60;54.20;;;;;;5062999;28;20436;-64
2022/05/11 10:38:01;;;;;;;;;;;26.20;52.50;;;;;;5071570;28;19912;-64
2022/05/11 10:40:47;;;;;;;;;;;26.80;50.00;;;;;;5067242;28;20349;-63
2022/05/11 10:43:15;;;;;;;;;;;27.30;48.50;;;;;;5064708;28;19924;-63
2022/05/11 10:45:44;;;;;;;;;;;27.70;47.00;;;;;;5070027;28;19912;-64
2022/05/11 10:48:29;;;;;;;;;;;28.00;46.60;;;;;;5070670;28;20000;-64
2022/05/11 10:51:04;;;;;;;;;;;28.70;44.80;;;;;;5068163;28;19951;-66
2022/05/11 10:53:38;;;;;;;;;;;29.00;43.50;;;;;;5069008;28;20349;-64
2022/05/11 10:56:04;;;;;;;;;;;28.80;43.00;;;;;;5070644;28;19912;-65
2022/05/11 10:58:48;;;;;;;;;;;28.50;43.60;;;;;;5067991;28;20305;-64
2022/05/11 11:01:15;;;;;;;;;;;28.30;43.90;;;;;;5069365;28;20382;-64
2022/05/11 11:03:53;;;;;;;;;;;28.30;43.40;;;;;;5067227;28;19920;-63
2022/05/11 11:09:37;;;;;;;;;;;28.60;42.10;;;;;;5068790;28;19908;-64
2022/05/11 11:12:06;;;;;;;;;;;28.70;42.10;;;;;;5068994;28;20000;-64
2022/05/11 11:14:34;;;;;;;;;;;28.80;42.00;;;;;;5068979;28;19908;-64
2022/05/11 11:17:02;;;;;;;;;;;28.70;41.30;;;;;;5067632;28;19909;-64
2022/05/11 11:19:27;;;;;;;;;;;28.50;41.40;;;;;;5049559;28;19967;-65
2022/05/11 11:21:53;;;;;;;;;;;28.30;42.30;;;;;;5069293;28;19948;-64
2022/05/11 11:24:23;;;;;;;;;;;28.30;42.30;;;;;;5066776;28;20306;-64
2022/05/11 11:26:59;;;;;;;;;;;28.40;42.20;;;;;;5071494;28;19919;-64
2022/05/11 11:29:26;;;;;;;;;;;28.50;41.90;;;;;;5069091;28;19914;-64
2022/05/11 11:31:58;;;;;;;;;;;28.40;41.40;;;;;;5070216;28;19911;-64
2022/05/11 11:34:26;;;;;;;;;;;28.20;41.90;;;;;;5067222;28;19922;-65
2022/05/11 11:36:52;;;;;;;;;;;28.40;42.00;;;;;;5067549;28;19919;-63
2022/05/11 11:39:36;;;;;;;;;;;28.60;40.90;;;;;;5069202;28;19947;-63
2022/05/11 11:42:06;;;;;;;;;;;28.60;40.90;;;;;;5061423;28;20384;-63
2022/05/11 11:44:40;;;;;;;;;;;28.50;42.10;;;;;;5068625;28;19916;-63
2022/05/11 11:47:25;;;;;;;;;;;28.50;41.40;;;;;;5069084;28;19909;-63
2022/05/11 11:49:52;;;;;;;;;;;28.60;40.80;;;;;;5068484;28;20380;-64
2022/05/11 11:52:38;;;;;;;;;;;28.20;40.60;;;;;;5070510;28;19950;-64
2022/05/11 11:55:27;;;;;;;;;;;27.60;41.60;;;;;;5067997;28;19917;-64
2022/05/11 11:58:16;;;;;;;;;;;27.00;42.70;;;;;;5067726;28;20351;-64
2022/05/11 12:00:47;;;;;;;;;;;26.50;43.70;;;;;;5066454;28;19916;-64
2022/05/11 12:03:17;;;;;;;;;;;26.00;44.80;;;;;;5069029;28;19912;-64
2022/05/11 12:05:43;;;;;;;;;;;25.80;46.00;;;;;;5069786;28;19908;-65
2022/05/11 12:16:49;;;;;;;;;;;27.00;42.30;;;;;;5071818;28;19938;-65
2022/05/11 12:19:15;;;;;;;;;;;27.10;41.10;;;;;;5068837;28;19919;-64
2022/05/11 12:21:42;;;;;;;;;;;27.10;41.30;;;;;;5067148;28;19919;-65
2022/05/11 12:24:18;;;;;;;;;;;27.10;41.80;;;;;;5068102;28;19916;-65
2022/05/11 12:26:52;;;;;;;;;;;27.00;41.10;;;;;;5070229;28;20003;-64
2022/05/11 12:32:07;;;;;;;;;;;26.80;41.20;;;;;;5066631;28;20349;-65
2022/05/11 12:34:40;;;;;;;;;;;26.90;41.00;;;;;;5069344;28;19928;-65
2022/05/11 12:37:25;;;;;;;15.13;2.50;;;26.90;40.50;;;;;;5067387;28;20564;-65
2022/05/11 12:40:17;;;;;;;18.23;2.67;;;26.60;40.80;;;;;;5065115;28;20416;-66
2022/05/11 12:42:48;;;;;;;16.03;2.90;;;26.40;41.40;;;;;;5067505;28;20931;-65
2022/05/11 12:45:44;;;;;;;12.93;2.63;;;26.20;41.60;;;;;;5068210;28;20416;-66
2022/05/11 12:48:19;;;;;;;12.60;2.63;;;25.90;42.10;;;;;;5061162;28;20502;-66
2022/05/11 12:50:51;;;;;;;;;;;25.80;43.70;;;;;;5061769;28;20417;-67
2022/05/11 12:53:16;;;;;;;;;;;25.80;43.70;;;;;;5058692;28;19944;-66
2022/05/11 12:55:43;;;;;;;;;;;25.80;43.20;;;;;;5066912;28;19947;-67
2022/05/11 12:58:20;;;;;;;74.88;5.15;;;25.60;43.00;;;;;;5065183;28;20342;-65
2022/05/11 13:00:54;;;;;;;16.25;2.22;;;25.30;43.10;;;;;;5064192;28;20494;-65
2022/05/11 13:03:26;;;;;;;12.30;2.30;;;24.90;43.50;;;;;;5065523;28;20468;-66
2022/05/11 13:05:59;;;;;;;18.27;2.60;;;24.50;45.30;;;;;;5066102;28;20430;-65
2022/05/11 13:08:30;;;;;;;21.98;2.72;;;24.20;45.60;;;;;;5059609;28;20415;-67
2022/05/11 13:10:56;;;;;;;25.73;3.33;;;24.10;46.60;;;;;;5065281;28;20497;-67
2022/05/11 13:13:29;;;;;;;14.23;2.47;;;24.00;47.10;;;;;;5060013;28;20407;-67
2022/05/11 13:16:07;;;;;;;15.57;2.80;;;23.90;47.00;;;;;;5065697;28;20438;-66
2022/05/11 13:18:34;;;;;;;19.15;2.75;;;23.90;47.80;;;;;;5065600;28;20438;-67
2022/05/11 13:21:04;;;;;;;13.25;2.50;;;23.90;48.30;;;;;;5065940;28;20871;-66
2022/05/11 13:23:40;;;;;;;14.80;2.63;;;24.00;48.20;;;;;;5061241;28;20428;-67
2022/05/11 13:26:29;;;;;;;27.92;3.30;;;23.90;48.50;;;;;;5065041;28;20430;-65
2022/05/11 13:29:00;;;;;;;21.55;3.20;;;23.80;48.70;;;;;;5059911;28;20410;-65
2022/05/11 13:31:33;;;;;;;12.35;2.40;;;23.80;49.30;;;;;;5064913;28;20485;-67
2022/05/11 13:34:01;;;;;;;18.25;3.08;;;23.80;49.40;;;;;;5064748;28;20415;-67
2022/05/11 13:36:28;;;;;;;11.88;2.70;;;23.70;50.00;;;;;;5063662;28;20412;-66
2022/05/11 13:39:19;;;;;;;14.18;2.75;;;23.70;50.20;;;;;;5063712;28;20557;-64
2022/05/11 13:41:53;;;;;;;15.82;2.80;;;23.60;50.40;;;;;;5061608;28;20888;-65
2022/05/11 13:44:49;;;;;;;15.82;2.85;;;23.40;50.80;;;;;;5063311;28;20800;-66
2022/05/11 13:48:11;;;;;;;20.33;3.00;;;23.10;51.60;;;;;;5065687;28;20495;-65
2022/05/11 13:50:43;;;;;;;17.58;3.38;;;22.80;53.00;;;;;;5064184;28;20400;-68
2022/05/11 13:53:27;;;;;;;23.77;3.53;;;22.70;53.70;;;;;;5066295;28;20745;-63
2022/05/11 13:56:18;;;;;;;21.90;3.40;;;22.40;55.20;;;;;;5066772;28;20406;-63
2022/05/11 13:58:46;;;;;;;14.23;3.03;;;22.10;56.10;;;;;;5059343;28;20479;-63
2022/05/11 14:01:14;;;;;;;16.83;3.13;;;22.00;56.30;;;;;;5060865;28;20915;-63
2022/05/11 14:03:42;;;;;;;14.60;3.13;;;21.90;57.20;;;;;;5058885;28;20423;-63
2022/05/11 14:06:12;;;;;;;14.73;2.95;;;21.70;57.30;;;;;;5056686;28;20393;-63
2022/05/11 14:08:38;;;;;;;17.55;3.30;;;21.60;57.70;;;;;;5063442;28;20439;-64
2022/05/11 14:11:03;;;;;;;;;;;21.40;58.20;;;;;;5063381;28;20944;-64
2022/05/11 14:13:29;;;;;;;;;;;21.40;58.90;;;;;;5061541;28;19916;-64
2022/05/11 14:15:55;;;;;;;;;;;21.50;59.10;;;;;;5063534;28;19912;-65
2022/05/11 14:18:21;;;;;;;;;;;21.50;58.70;;;;;;5063540;28;20394;-64
2022/05/11 14:20:49;;;;;;;21.52;3.15;;;21.40;59.00;;;;;;5066385;28;20473;-64
2022/05/11 14:23:15;;;;;;;16.25;3.10;;;21.20;59.60;;;;;;5065029;28;20403;-64
2022/05/11 14:25:41;;;;;;;19.55;3.35;;;21.00;60.70;;;;;;5064319;28;20407;-64
2022/05/11 14:28:06;;;;;;;;;;;20.80;61.30;;;;;;5066783;28;20400;-66
2022/05/11 14:30:33;;;;;;;16.45;2.97;;;20.70;62.20;;;;;;5065019;28;19981;-65
2022/05/11 14:32:59;;;;;;;14.50;2.90;;;20.50;62.60;;;;;;5058731;28;20777;-67
2022/05/11 14:35:26;;;;;;;16.83;3.28;;;20.50;63.10;;;;;;5048866;28;20419;-65
2022/05/11 14:37:52;;;;;;;17.10;3.40;;;20.40;63.80;;;;;;5062171;28;20941;-67